createdAt,value
2019-02-12T00:01:15.461Z,96.80
2019-02-12T00:03:45.762Z,96.90
2019-02-12T00:06:16.091Z,97.00
2019-02-12T00:08:46.405Z,97.10
2019-02-12T00:11:16.704Z,97.20
2019-02-12T00:13:47.106Z,97.30
2019-02-12T00:16:17.567Z,97.50
2019-02-12T00:18:47.993Z,97.30
2019-02-12T00:21:18.211Z,97.30
2019-02-12T00:23:48.553Z,97.30
2019-02-12T00:26:18.903Z,97.40
2019-02-12T00:28:49.284Z,97.50
2019-02-12T00:31:19.613Z,97.40
2019-02-12T00:33:50.039Z,97.20
2019-02-12T00:36:20.491Z,97.20
2019-02-12T00:38:50.982Z,97.10
2019-02-12T00:41:21.352Z,97.20
2019-02-12T00:43:51.608Z,97.30
2019-02-12T00:46:21.854Z,97.30
2019-02-12T00:48:52.495Z,97.20
2019-02-12T00:51:22.983Z,97.20
2019-02-12T00:53:53.439Z,97.00
2019-02-12T00:56:23.762Z,97.30
2019-02-12T00:58:54.093Z,97.00
2019-02-12T01:01:24.372Z,96.90
2019-02-12T01:03:54.822Z,96.90
2019-02-12T01:06:25.332Z,97.00
2019-02-12T01:08:55.842Z,96.70
2019-02-12T01:11:26.119Z,96.60
2019-02-12T01:13:56.649Z,96.70
2019-02-12T01:16:27.680Z,95.40
2019-02-12T01:18:58.129Z,94.70
2019-02-12T01:21:28.368Z,94.50
2019-02-12T01:23:58.780Z,94.00
2019-02-12T01:26:29.191Z,94.40
2019-02-12T01:28:59.618Z,94.70
2019-02-12T01:31:29.940Z,95.20
2019-02-12T01:34:00.572Z,95.50
2019-02-12T01:36:30.904Z,95.60
2019-02-12T01:39:01.138Z,95.40
2019-02-12T01:41:32.799Z,95.20
2019-02-12T01:44:03.162Z,94.90
2019-02-12T01:46:33.467Z,94.70
2019-02-12T01:49:03.799Z,94.70
2019-02-12T01:51:35.321Z,94.70
2019-02-12T01:54:06.760Z,94.50
2019-02-12T01:56:37.283Z,94.10
2019-02-12T01:59:07.643Z,94.00
2019-02-12T02:01:37.960Z,94.10
2019-02-12T02:04:08.208Z,94.30
2019-02-12T02:06:39.983Z,94.70
2019-02-12T02:09:10.226Z,94.60
2019-02-12T02:11:40.853Z,94.10
2019-02-12T02:14:12.213Z,94.10
2019-02-12T02:16:42.464Z,93.90
2019-02-12T02:19:12.740Z,93.30
2019-02-12T02:21:44.323Z,92.90
2019-02-12T02:24:14.835Z,92.90
2019-02-12T02:26:45.171Z,92.50
2019-02-12T02:29:15.487Z,92.20
2019-02-12T02:31:45.711Z,92.70
2019-02-12T02:34:16.102Z,92.80
2019-02-12T02:36:46.293Z,92.80
2019-02-12T02:39:16.743Z,93.00
2019-02-12T02:41:47.020Z,93.10
2019-02-12T02:44:17.471Z,93.20
2019-02-12T02:46:50.869Z,93.40
2019-02-12T02:49:22.179Z,93.10
2019-02-12T02:51:54.163Z,93.10
2019-02-12T02:54:24.882Z,93.20
2019-02-12T02:56:55.321Z,93.30
2019-02-12T02:59:25.563Z,93.60
2019-02-12T03:01:55.842Z,93.80
2019-02-12T03:04:26.274Z,93.80
2019-02-12T03:06:56.649Z,93.80
2019-02-12T03:09:26.952Z,93.90
2019-02-12T03:11:57.227Z,93.60
2019-02-12T03:14:27.603Z,93.30
2019-02-12T03:16:57.890Z,93.10
2019-02-12T03:19:28.311Z,93.20
2019-02-12T03:22:03.749Z,93.00
2019-02-12T03:24:31.515Z,92.90
2019-02-12T03:27:01.844Z,92.80
2019-02-12T03:29:32.111Z,92.80
2019-02-12T03:32:02.355Z,92.60
2019-02-12T03:34:32.796Z,92.40
2019-02-12T03:37:03.185Z,92.40
2019-02-12T03:39:33.432Z,92.30
2019-02-12T03:42:03.635Z,92.50
2019-02-12T03:44:33.892Z,92.50
2019-02-12T03:47:04.132Z,92.70
2019-02-12T03:49:34.570Z,92.40
2019-02-12T03:52:12.613Z,92.10
2019-02-12T03:54:36.927Z,91.70
2019-02-12T03:57:07.236Z,91.50
2019-02-12T03:59:37.604Z,90.70
2019-02-12T04:02:07.930Z,90.40
2019-02-12T04:04:38.260Z,90.00
2019-02-12T04:07:08.557Z,88.60
2019-02-12T04:09:38.886Z,86.10
2019-02-12T04:12:09.212Z,87.20
2019-02-12T04:14:39.474Z,86.10
2019-02-12T04:17:09.859Z,85.80
2019-02-12T04:19:40.253Z,84.80
2019-02-12T04:22:10.559Z,84.60
2019-02-12T04:24:40.964Z,85.10
2019-02-12T04:27:11.199Z,84.80
2019-02-12T04:29:41.610Z,84.40
2019-02-12T04:32:11.986Z,84.50
2019-02-12T04:34:42.454Z,84.60
2019-02-12T04:37:12.681Z,85.30
2019-02-12T04:39:42.975Z,85.30
2019-02-12T04:42:13.315Z,85.00
2019-02-12T04:44:43.853Z,84.70
2019-02-12T04:47:14.270Z,84.60
2019-02-12T04:49:44.484Z,84.80
2019-02-12T04:52:15.125Z,85.30
2019-02-12T04:54:45.533Z,85.90
2019-02-12T04:57:15.874Z,86.40
2019-02-12T04:59:46.282Z,86.60
2019-02-12T05:02:16.730Z,87.20
2019-02-12T05:04:46.982Z,86.80
2019-02-12T05:07:17.271Z,87.30
2019-02-12T05:09:49.762Z,87.00
2019-02-12T05:12:21.402Z,87.20
2019-02-12T05:14:51.632Z,87.20
2019-02-12T05:17:22.719Z,87.30
2019-02-12T05:19:53.155Z,87.80
2019-02-12T05:22:23.554Z,87.70
2019-02-12T05:24:53.903Z,87.90
2019-02-12T05:27:27.315Z,88.20
2019-02-12T05:29:57.633Z,88.10
2019-02-12T05:32:27.953Z,88.00
2019-02-12T05:34:58.212Z,88.60
2019-02-12T05:37:28.663Z,88.50
2019-02-12T05:39:59.123Z,89.00
2019-02-12T05:42:29.423Z,88.90
2019-02-12T05:45:00.026Z,89.00
2019-02-12T05:47:32.089Z,89.20
2019-02-12T05:50:02.510Z,89.40
2019-02-12T05:52:32.898Z,89.20
2019-02-12T05:55:03.404Z,89.30
2019-02-12T05:57:33.872Z,88.50
2019-02-12T06:00:05.365Z,88.40
2019-02-12T06:02:35.881Z,88.40
2019-02-12T06:05:06.920Z,88.40
2019-02-12T06:07:37.303Z,88.10
2019-02-12T06:10:09.057Z,88.30
2019-02-12T06:12:39.303Z,88.10
2019-02-12T06:15:09.771Z,88.10
2019-02-12T06:17:40.153Z,88.00
2019-02-12T06:20:10.580Z,87.60
2019-02-12T06:22:41.127Z,87.40
2019-02-12T06:25:11.554Z,87.50
2019-02-12T06:27:41.962Z,87.80
2019-02-12T06:30:12.419Z,87.70
2019-02-12T06:32:42.863Z,87.60
2019-02-12T06:35:13.446Z,87.00
2019-02-12T06:37:44.877Z,87.40
2019-02-12T06:40:15.408Z,87.40
2019-02-12T06:42:45.943Z,87.60
2019-02-12T06:45:16.514Z,87.80
2019-02-12T06:47:47.052Z,87.90
2019-02-12T06:50:17.588Z,87.90
2019-02-12T06:52:47.850Z,88.00
2019-02-12T06:55:18.430Z,87.70
2019-02-12T06:57:48.829Z,87.90
2019-02-12T07:00:19.495Z,87.60
2019-02-12T07:03:09.608Z,87.20
2019-02-12T07:05:42.432Z,86.40
2019-02-12T07:08:47.719Z,85.60
2019-02-12T07:11:42.084Z,85.40
2019-02-12T07:14:40.762Z,85.60
2019-02-12T07:17:49.802Z,85.50
2019-02-12T07:20:58.899Z,86.10
2019-02-12T07:23:57.104Z,86.10
2019-02-12T07:26:58.043Z,85.90
2019-02-12T07:29:55.923Z,84.80
2019-02-12T07:32:45.146Z,84.70
2019-02-12T07:35:43.211Z,84.70
2019-02-12T07:38:36.487Z,84.50
2019-02-12T07:41:33.294Z,84.00
2019-02-12T07:44:26.403Z,83.20
2019-02-12T07:47:23.396Z,83.30
2019-02-12T07:50:19.626Z,82.20
2019-02-12T07:53:18.295Z,82.60
2019-02-12T07:56:27.427Z,82.30
2019-02-12T07:59:24.298Z,82.60
2019-02-12T08:02:33.854Z,81.80
2019-02-12T08:05:42.963Z,81.90
2019-02-12T08:08:52.028Z,81.30
2019-02-12T08:11:54.899Z,81.70
2019-02-12T08:14:51.118Z,80.50
2019-02-12T08:18:00.049Z,80.90
2019-02-12T08:20:58.945Z,79.80
2019-02-12T08:23:52.692Z,79.80
2019-02-12T08:26:51.925Z,79.40
2019-02-12T08:29:56.970Z,79.30
2019-02-12T08:32:48.788Z,79.00
2019-02-12T08:35:32.928Z,78.10
2019-02-12T08:38:19.121Z,77.00
2019-02-12T08:41:14.815Z,77.30
2019-02-12T08:43:59.595Z,77.00
2019-02-12T08:47:08.578Z,76.30
2019-02-12T08:49:52.827Z,76.80
2019-02-12T08:52:51.161Z,75.10
2019-02-12T08:55:36.888Z,74.70
2019-02-12T08:58:24.485Z,75.10
2019-02-12T09:01:33.602Z,73.80
2019-02-12T09:04:42.729Z,74.40
2019-02-12T09:07:36.021Z,73.80
2019-02-12T09:10:34.071Z,72.40
2019-02-12T09:13:13.968Z,71.40
2019-02-12T09:16:23.029Z,71.70
2019-02-12T09:19:05.366Z,70.90
2019-02-12T09:22:14.359Z,71.00
2019-02-12T09:25:04.821Z,70.50
2019-02-12T09:28:03.685Z,71.50
2019-02-12T09:31:12.686Z,70.80
2019-02-12T09:34:06.087Z,70.40
2019-02-12T09:37:09.749Z,71.30
2019-02-12T09:40:01.580Z,70.90
2019-02-12T09:42:53.225Z,71.50
2019-02-12T09:45:49.052Z,70.70
2019-02-12T09:48:42.061Z,71.50
2019-02-12T09:51:33.446Z,71.10
2019-02-12T09:54:42.029Z,72.20
2019-02-12T09:57:32.216Z,70.90
2019-02-12T10:00:17.561Z,70.50
2019-02-12T10:03:18.921Z,70.70
2019-02-12T10:06:27.793Z,70.80
2019-02-12T10:09:31.476Z,70.30
2019-02-12T10:12:40.500Z,70.20
2019-02-12T10:15:35.645Z,71.00
2019-02-12T10:18:45.505Z,71.30
2019-02-12T10:21:38.611Z,71.00
2019-02-12T10:24:40.825Z,70.70
2019-02-12T10:27:35.212Z,70.20
2019-02-12T10:30:23.804Z,70.20
2019-02-12T10:32:54.207Z,69.50
2019-02-12T10:35:24.583Z,69.40
2019-02-12T10:37:54.942Z,69.60
2019-02-12T10:40:26.808Z,69.80
2019-02-12T10:42:57.363Z,70.30
2019-02-12T10:45:27.874Z,71.00
2019-02-12T10:47:58.292Z,69.80
2019-02-12T10:50:28.649Z,69.30
2019-02-12T10:52:58.991Z,70.30
2019-02-12T10:55:29.387Z,70.60
2019-02-12T10:57:59.884Z,71.60
2019-02-12T11:00:30.245Z,71.30
2019-02-12T11:03:00.713Z,70.90
2019-02-12T11:05:31.267Z,70.60
2019-02-12T11:08:01.756Z,71.70
2019-02-12T11:10:32.220Z,72.10
2019-02-12T11:13:02.762Z,72.10
2019-02-12T11:15:33.107Z,72.30
2019-02-12T11:18:03.395Z,73.10
2019-02-12T11:20:33.952Z,74.60
2019-02-12T11:23:04.287Z,74.50
2019-02-12T11:25:34.763Z,73.80
2019-02-12T11:28:05.236Z,74.30
2019-02-12T11:30:35.607Z,74.30
2019-02-12T11:33:06.168Z,74.20
2019-02-12T11:35:36.977Z,73.80
2019-02-12T11:38:07.525Z,73.40
2019-02-12T11:40:37.987Z,74.30
2019-02-12T11:43:09.963Z,74.00
2019-02-12T11:45:40.616Z,74.00
2019-02-12T11:48:10.988Z,73.80
2019-02-12T11:50:41.443Z,74.30
2019-02-12T11:53:11.952Z,74.00
2019-02-12T11:55:42.503Z,74.60
2019-02-12T11:58:12.994Z,73.90
2019-02-12T12:00:54.805Z,74.50
2019-02-12T12:03:25.148Z,75.00
2019-02-12T12:05:55.515Z,74.20
2019-02-12T12:08:26.103Z,73.70
2019-02-12T12:10:56.543Z,74.00
2019-02-12T12:13:27.035Z,73.80
2019-02-12T12:15:57.544Z,73.60
2019-02-12T12:18:28.026Z,73.40
2019-02-12T12:20:58.305Z,73.80
2019-02-12T12:23:28.570Z,73.20
2019-02-12T12:25:58.926Z,73.90
2019-02-12T12:28:29.526Z,73.60
2019-02-12T12:30:59.850Z,73.30
2019-02-12T12:33:30.219Z,74.00
2019-02-12T12:36:00.690Z,73.40
2019-02-12T12:38:30.986Z,73.50
2019-02-12T12:41:01.448Z,74.10
2019-02-12T12:43:31.875Z,73.90
2019-02-12T12:46:02.306Z,73.70
2019-02-12T12:48:32.677Z,73.40
2019-02-12T12:51:03.064Z,73.80
2019-02-12T12:53:33.495Z,74.00
2019-02-12T12:56:03.865Z,73.70
2019-02-12T12:58:34.301Z,74.10
2019-02-12T13:01:04.651Z,74.20
2019-02-12T13:03:35.104Z,74.30
2019-02-12T13:06:05.443Z,74.80
2019-02-12T13:08:35.810Z,74.50
2019-02-12T13:11:06.433Z,74.30
2019-02-12T13:13:36.942Z,73.60
2019-02-12T13:16:10.636Z,73.50
2019-02-12T13:18:41.053Z,73.70
2019-02-12T13:21:11.546Z,73.20
2019-02-12T13:23:42.168Z,73.70
2019-02-12T13:26:12.503Z,73.20
2019-02-12T13:28:42.861Z,72.30
2019-02-12T13:31:13.182Z,71.20
2019-02-12T13:33:43.744Z,73.00
2019-02-12T13:36:14.518Z,72.50
2019-02-12T13:38:44.953Z,72.90
2019-02-12T13:41:15.827Z,72.80
2019-02-12T13:43:46.096Z,72.30
2019-02-12T13:46:16.526Z,73.00
2019-02-12T13:48:46.850Z,72.50
2019-02-12T13:51:17.263Z,71.90
2019-02-12T13:53:47.731Z,72.00
2019-02-12T13:56:18.094Z,71.70
2019-02-12T13:58:48.356Z,72.00
2019-02-12T14:01:18.703Z,71.40
2019-02-12T14:03:49.244Z,71.30
2019-02-12T14:06:19.679Z,71.00
2019-02-12T14:08:49.992Z,72.20
2019-02-12T14:11:20.441Z,73.00
2019-02-12T14:13:50.984Z,72.90
2019-02-12T14:16:21.394Z,73.80
2019-02-12T14:18:51.851Z,74.00
2019-02-12T14:21:22.183Z,75.00
2019-02-12T14:23:52.697Z,76.50
2019-02-12T14:26:22.973Z,78.00
2019-02-12T14:28:53.445Z,77.70
2019-02-12T14:31:24.245Z,77.70
2019-02-12T14:33:54.800Z,76.90
2019-02-12T14:36:25.539Z,77.80
2019-02-12T14:38:56.262Z,77.80
2019-02-12T14:41:26.955Z,78.20
2019-02-12T14:43:57.563Z,77.30
2019-02-12T14:46:29.056Z,78.10
2019-02-12T14:48:59.812Z,78.40
2019-02-12T14:51:30.453Z,79.20
2019-02-12T14:54:01.313Z,79.40
2019-02-12T14:56:32.055Z,79.90
2019-02-12T14:59:02.915Z,80.30
2019-02-12T15:01:33.613Z,80.00
2019-02-12T15:04:04.314Z,80.40
2019-02-12T15:06:35.053Z,81.20
2019-02-12T15:09:06.786Z,81.80
2019-02-12T15:11:37.592Z,82.50
2019-02-12T15:14:08.292Z,82.40
2019-02-12T15:16:39.061Z,82.60
2019-02-12T15:19:09.733Z,82.70
2019-02-12T15:21:40.902Z,82.40
2019-02-12T15:24:11.720Z,82.80
2019-02-12T15:26:42.650Z,83.20
2019-02-12T15:29:13.360Z,82.80
2019-02-12T15:31:44.089Z,82.90
2019-02-12T15:34:14.788Z,82.40
2019-02-12T15:36:45.446Z,81.60
2019-02-12T15:39:15.985Z,81.30
2019-02-12T15:41:46.704Z,80.30
2019-02-12T15:44:17.424Z,80.30
2019-02-12T15:46:48.099Z,80.10
2019-02-12T15:49:18.753Z,80.70
2019-02-12T15:51:49.488Z,81.20
2019-02-12T15:54:20.161Z,81.40
2019-02-12T15:56:50.618Z,81.40
2019-02-12T15:59:21.572Z,81.70
2019-02-12T16:01:52.361Z,81.90
2019-02-12T16:04:25.723Z,82.80
2019-02-12T16:06:57.489Z,83.40
2019-02-12T16:09:28.321Z,84.10
2019-02-12T16:11:59.200Z,85.50
2019-02-12T16:14:29.946Z,84.90
2019-02-12T16:17:00.725Z,84.60
2019-02-12T16:19:32.061Z,84.30
2019-02-12T16:22:02.864Z,83.90
2019-02-12T16:24:33.836Z,83.90
2019-02-12T16:27:04.423Z,83.80
2019-02-12T16:29:35.184Z,84.20
2019-02-12T16:32:06.035Z,84.50
2019-02-12T16:34:36.774Z,85.00
2019-02-12T16:37:07.917Z,85.20
2019-02-12T16:39:38.545Z,85.60
2019-02-12T16:42:09.356Z,85.80
2019-02-12T16:44:40.434Z,86.10
2019-02-12T16:47:11.066Z,87.10
2019-02-12T16:49:44.169Z,86.70
2019-02-12T16:52:20.879Z,86.70
2019-02-12T16:54:50.311Z,86.90
2019-02-12T16:57:21.178Z,87.50
2019-02-12T16:59:51.875Z,87.60
2019-02-12T17:02:22.453Z,87.80
2019-02-12T17:04:53.093Z,88.00
2019-02-12T17:07:23.797Z,88.10
2019-02-12T17:09:54.429Z,88.20
2019-02-12T17:12:25.087Z,88.60
2019-02-12T17:22:56.359Z,88.80
2019-02-12T17:25:27.382Z,89.80
2019-02-12T17:27:58.249Z,89.70
2019-02-12T17:30:28.803Z,89.40
2019-02-12T17:32:59.756Z,89.30
2019-02-12T17:35:30.626Z,89.40
2019-02-12T17:38:02.115Z,88.90
2019-02-12T17:40:33.035Z,88.50
2019-02-12T17:43:05.061Z,88.50
2019-02-12T17:45:36.278Z,88.70
2019-02-12T17:48:07.255Z,89.10
2019-02-12T17:50:37.934Z,88.70
2019-02-12T17:53:09.008Z,88.70
2019-02-12T17:55:39.782Z,88.40
2019-02-12T17:58:10.551Z,88.40
2019-02-12T18:00:44.618Z,88.60
2019-02-12T18:03:15.255Z,88.60
2019-02-12T18:05:47.534Z,88.30
2019-02-12T18:08:19.338Z,88.00
2019-02-12T18:10:50.228Z,87.40
2019-02-12T18:13:21.092Z,87.20
2019-02-12T18:15:51.821Z,87.00
2019-02-12T18:18:22.526Z,87.00
2019-02-12T18:20:53.455Z,86.50
2019-02-12T18:23:24.312Z,86.30
2019-02-12T18:25:55.252Z,86.40
2019-02-12T18:28:26.059Z,86.50
2019-02-12T18:30:56.823Z,86.00
2019-02-12T18:33:27.685Z,85.90
2019-02-12T18:35:58.335Z,86.20
2019-02-12T18:38:29.094Z,86.90
2019-02-12T18:41:00.035Z,87.10
2019-02-12T18:43:30.715Z,87.20
2019-02-12T18:46:01.769Z,86.80
2019-02-12T18:48:34.095Z,86.70
2019-02-12T18:51:05.045Z,86.90
2019-02-12T18:53:35.912Z,86.90
2019-02-12T18:56:06.835Z,86.90
2019-02-12T18:58:37.615Z,87.10
2019-02-12T19:01:08.600Z,87.30
2019-02-12T19:03:39.336Z,87.40
2019-02-12T19:06:10.175Z,87.60
2019-02-12T19:08:41.116Z,87.90
2019-02-12T19:11:11.771Z,88.00
2019-02-12T19:13:43.100Z,88.40
2019-02-12T19:16:14.861Z,88.50
2019-02-12T19:18:45.845Z,88.80
2019-02-12T19:21:16.914Z,89.20
2019-02-12T19:23:48.164Z,89.80
2019-02-12T19:26:19.535Z,89.80
2019-02-12T19:28:50.234Z,89.90
2019-02-12T19:31:21.194Z,90.10
2019-02-12T19:33:51.954Z,90.10
2019-02-12T19:36:22.816Z,90.50
2019-02-12T19:38:53.438Z,90.30
2019-02-12T19:41:24.719Z,90.50
2019-02-12T19:43:55.394Z,90.60
2019-02-12T19:46:26.134Z,90.70
2019-02-12T19:48:57.057Z,91.00
2019-02-12T19:51:28.615Z,91.10
2019-02-12T19:54:00.167Z,91.40
2019-02-12T19:56:31.333Z,91.50
2019-02-12T19:59:02.874Z,91.90
2019-02-12T20:01:33.895Z,92.00
2019-02-12T20:04:05.299Z,92.20
2019-02-12T20:06:36.134Z,92.40
2019-02-12T20:09:11.752Z,92.40
2019-02-12T20:11:42.457Z,92.70
2019-02-12T20:14:13.195Z,93.10
2019-02-12T20:16:43.922Z,93.10
2019-02-12T20:22:30.526Z,93.20
2019-02-12T20:34:11.765Z,93.80
2019-02-12T20:36:43.222Z,93.70
2019-02-12T20:39:14.294Z,93.80
2019-02-12T20:41:45.166Z,93.80
2019-02-12T20:44:15.880Z,93.80
2019-02-12T20:46:46.698Z,93.70
2019-02-12T20:49:17.368Z,93.90
2019-02-12T20:51:48.108Z,94.10
2019-02-12T20:54:18.668Z,94.50
2019-02-12T20:56:49.474Z,94.70
2019-02-12T20:59:20.332Z,94.80
2019-02-12T21:01:51.495Z,94.70
2019-02-12T21:04:22.436Z,94.70
2019-02-12T21:06:56.864Z,94.70
2019-02-12T21:09:27.965Z,94.80
2019-02-12T21:11:58.833Z,94.70
2019-02-12T21:14:29.685Z,94.70
2019-02-12T21:17:01.159Z,94.80
2019-02-12T21:19:31.931Z,94.90
2019-02-12T21:22:05.107Z,94.70
2019-02-12T21:33:35.101Z,94.60
2019-02-12T21:36:06.055Z,94.40
2019-02-12T21:41:35.326Z,94.10
2019-02-12T21:44:06.097Z,94.30
2019-02-12T21:46:36.877Z,94.20
2019-02-12T21:49:07.721Z,94.20
2019-02-12T21:51:39.968Z,94.10
2019-02-12T21:54:10.650Z,94.20
2019-02-12T21:56:41.535Z,94.10
2019-02-12T21:59:12.254Z,93.80
2019-02-12T22:01:43.088Z,93.80
2019-02-12T22:04:13.713Z,93.80
2019-02-12T22:06:44.974Z,93.70
2019-02-12T22:09:15.728Z,93.90
2019-02-12T22:11:46.463Z,93.90
2019-02-12T22:14:17.189Z,94.00
2019-02-12T22:16:47.774Z,94.20
2019-02-12T22:19:18.421Z,94.20
2019-02-12T22:21:48.963Z,94.20
2019-02-12T22:24:19.628Z,94.20
2019-02-12T22:26:50.455Z,94.40
2019-02-12T22:29:21.173Z,94.40
2019-02-12T22:31:53.399Z,94.70
2019-02-12T22:34:24.004Z,94.40
2019-02-12T22:36:54.453Z,94.50
2019-02-12T22:39:25.122Z,94.60
2019-02-12T22:41:55.551Z,94.80
2019-02-12T22:44:26.395Z,94.70
2019-02-12T22:46:57.021Z,95.00
2019-02-12T22:49:27.543Z,95.00
2019-02-12T22:51:58.417Z,95.10
2019-02-12T22:54:29.353Z,95.00
2019-02-12T22:56:59.898Z,95.00
2019-02-12T22:59:31.498Z,95.00
2019-02-12T23:02:02.239Z,94.90
2019-02-12T23:04:32.688Z,95.00
2019-02-12T23:07:03.391Z,94.90
2019-02-12T23:09:33.895Z,94.80
2019-02-12T23:12:04.675Z,94.80
2019-02-12T23:14:35.273Z,94.80
2019-02-12T23:17:06.100Z,94.70
2019-02-12T23:19:36.631Z,94.70
2019-02-12T23:22:07.300Z,94.70
2019-02-12T23:24:37.821Z,94.50
2019-02-12T23:27:09.582Z,94.40
2019-02-12T23:29:40.015Z,94.20
2019-02-12T23:32:10.513Z,94.10
2019-02-12T23:34:41.075Z,94.10
2019-02-12T23:37:11.705Z,94.30
2019-02-12T23:39:42.109Z,94.30
2019-02-12T23:42:12.606Z,94.30
2019-02-12T23:44:43.186Z,94.60
2019-02-12T23:47:13.592Z,94.40
2019-02-12T23:49:44.033Z,94.40
2019-02-12T23:52:14.522Z,94.20
2019-02-12T23:54:45.032Z,94.20
2019-02-12T23:57:15.523Z,94.10
2019-02-12T23:59:46.030Z,94.50
